Time;durP1;ratioP1;P1;durP2;ratioP2;P2;SDS_P1;SDS_P2;PMS_P1;PMS_P2;Temp;Humidity;BMP_temperature;BMP_pressure;BME280_temperature;BME280_humidity;BME280_pressure;Samples;Min_cycle;Max_cycle;Signal;HPM_P1;HPM_P2
2023/07/22 01:03:57;;;;;;;0.30;0.30;;;;;;;17.41;100.00;99585.34;4768384;23;20592;-89
2023/07/22 01:06:28;;;;;;;0.60;0.52;;;;;;;17.39;100.00;99593.44;4934821;28;20051;-89
2023/07/22 01:08:54;;;;;;;0.30;0.30;;;;;;;17.33;100.00;99601.06;4954793;28;20081;-88
2023/07/22 01:11:20;;;;;;;0.50;0.50;;;;;;;17.33;100.00;99601.06;4942831;28;20031;-88
2023/07/22 01:13:45;;;;;;;0.10;0.10;;;;;;;17.34;100.00;99587.81;4940326;28;20164;-88
2023/07/22 01:16:12;;;;;;;0.43;0.35;;;;;;;17.33;100.00;99595.44;4933993;28;20039;-88
2023/07/22 01:18:38;;;;;;;0.35;0.32;;;;;;;17.33;100.00;99595.44;4952464;28;20046;-88
2023/07/22 01:21:05;;;;;;;0.25;0.25;;;;;;;17.31;100.00;99592.34;4937956;28;20561;-89
2023/07/22 01:23:31;;;;;;;0.20;0.20;;;;;;;17.19;100.00;99582.28;4937987;28;20117;-89
2023/07/22 01:25:56;;;;;;;0.10;0.10;;;;;;;17.20;100.00;99587.41;4938657;28;20257;-88
2023/07/22 01:28:22;;;;;;;0.30;0.30;;;;;;;17.18;100.00;99589.19;4937990;28;20423;-88
2023/07/22 01:30:48;;;;;;;0.10;0.10;;;;;;;17.11;100.00;99595.19;4939962;28;20498;-88
2023/07/22 01:33:14;;;;;;;0.57;0.55;;;;;;;17.06;100.00;99599.50;4939316;28;20046;-88
2023/07/22 01:35:40;;;;;;;0.30;0.30;;;;;;;17.09;100.00;99615.31;4938727;28;20541;-89
2023/07/22 01:38:08;;;;;;;0.20;0.20;;;;;;;17.07;100.00;99609.41;4936359;28;20047;-88
2023/07/22 01:40:34;;;;;;;0.20;0.20;;;;;;;17.07;100.00;99601.00;4955843;28;20526;-87
2023/07/22 01:43:00;;;;;;;0.25;0.25;;;;;;;17.06;100.00;99615.53;4936129;28;20042;-88
2023/07/22 01:45:25;;;;;;;0.22;0.22;;;;;;;17.05;100.00;99619.59;4939672;28;20185;-88
2023/07/22 01:47:51;;;;;;;1.20;1.10;;;;;;;17.11;100.00;99626.00;4952933;28;20134;-88
2023/07/22 01:50:18;;;;;;;1.20;0.75;;;;;;;17.06;100.00;99626.75;4952137;28;20035;-88
2023/07/22 01:52:46;;;;;;;0.10;0.10;;;;;;;16.95;100.00;99621.75;4955781;28;20046;-89
2023/07/22 01:55:12;;;;;;;0.88;0.80;;;;;;;17.04;100.00;99640.44;4955854;28;20038;-89
2023/07/22 01:57:37;;;;;;;0.85;0.52;;;;;;;17.01;100.00;99631.00;4954534;28;20136;-88
2023/07/22 02:00:05;;;;;;;0.13;0.13;;;;;;;17.02;100.00;99652.16;4955104;28;20050;-88
2023/07/22 02:02:38;;;;;;;0.22;0.22;;;;;;;17.04;100.00;99658.03;4953026;28;20129;-87
2023/07/22 02:05:04;;;;;;;3.92;1.33;;;;;;;16.98;100.00;99642.44;4935148;28;20130;-88
2023/07/22 02:07:30;;;;;;;0.30;0.30;;;;;;;17.02;100.00;99654.19;4952120;28;20047;-89
2023/07/22 02:09:56;;;;;;;0.00;0.00;;;;;;;17.02;100.00;99643.00;4932462;29;20078;-88
2023/07/22 02:12:22;;;;;;;0.60;0.60;;;;;;;16.99;100.00;99639.13;4942188;28;20061;-88
2023/07/22 02:14:47;;;;;;;0.52;0.52;;;;;;;17.01;100.00;99647.81;4919393;28;20507;-87
2023/07/22 02:17:13;;;;;;;0.43;0.43;;;;;;;16.96;100.00;99648.50;4920176;28;20207;-87
2023/07/22 02:19:39;;;;;;;0.60;0.60;;;;;;;16.99;100.00;99652.34;4951564;28;20491;-88
2023/07/22 02:22:05;;;;;;;1.30;0.95;;;;;;;17.01;100.00;99653.44;4936110;28;20035;-87
2023/07/22 02:24:31;;;;;;;0.22;0.22;;;;;;;16.99;100.00;99647.53;4951190;28;20541;-88
2023/07/22 02:26:56;;;;;;;0.47;0.47;;;;;;;16.99;100.00;99661.53;4919669;28;20046;-87
2023/07/22 02:29:22;;;;;;;0.35;0.35;;;;;;;16.94;100.00;99661.47;4916946;28;20475;-87
2023/07/22 02:31:47;;;;;;;0.40;0.40;;;;;;;16.83;100.00;99652.91;4937847;28;20325;-89
2023/07/22 02:34:13;;;;;;;2.75;0.90;;;;;;;16.82;100.00;99657.00;4939109;28;20077;-87
2023/07/22 02:36:38;;;;;;;0.22;0.22;;;;;;;16.82;100.00;99668.19;4935018;28;20106;-87
2023/07/22 02:39:04;;;;;;;0.40;0.35;;;;;;;16.87;100.00;99659.06;4954438;28;20058;-88
2023/07/22 02:41:30;;;;;;;0.25;0.25;;;;;;;16.85;100.00;99667.97;4947399;28;20039;-88
2023/07/22 02:43:55;;;;;;;0.98;0.45;;;;;;;16.91;100.00;99693.25;4950626;28;20189;-89
2023/07/22 02:46:21;;;;;;;0.68;0.68;;;;;;;16.84;100.00;99688.06;4924118;28;20043;-89
2023/07/22 02:48:47;;;;;;;0.25;0.25;;;;;;;16.76;100.00;99699.69;4954410;28;20054;-88
2023/07/22 02:51:12;;;;;;;1.00;1.00;;;;;;;16.66;100.00;99687.06;4939694;28;20043;-88
2023/07/22 02:53:38;;;;;;;0.20;0.20;;;;;;;16.73;100.00;99702.69;4955151;28;20049;-88
2023/07/22 02:56:04;;;;;;;0.10;0.10;;;;;;;16.67;100.00;99697.00;4923977;28;20121;-88
2023/07/22 02:58:30;;;;;;;0.47;0.32;;;;;;;16.71;100.00;99703.19;4938418;28;20128;-88
2023/07/22 03:00:58;;;;;;;1.15;0.40;;;;;;;16.71;100.00;99708.00;4939023;28;20462;-88
2023/07/22 03:03:24;;;;;;;0.10;0.10;;;;;;;16.66;100.00;99715.06;4936709;28;20078;-87
2023/07/22 03:05:51;;;;;;;0.22;0.22;;;;;;;16.66;100.00;99712.25;4939150;28;20069;-89
2023/07/22 03:08:18;;;;;;;0.20;0.20;;;;;;;16.63;100.00;99707.63;4939019;28;20031;-88
2023/07/22 03:10:48;;;;;;;0.10;0.10;;;;;;;16.50;100.00;99703.59;4940724;28;20145;-88
2023/07/22 03:13:17;;;;;;;0.00;0.00;;;;;;;16.56;100.00;99696.81;4937816;28;20039;-89
2023/07/22 03:15:43;;;;;;;0.45;0.22;;;;;;;16.51;100.00;99708.69;4936383;28;20039;-88
2023/07/22 03:18:09;;;;;;;0.22;0.22;;;;;;;16.50;100.00;99717.59;4949288;28;20081;-89
2023/07/22 03:20:36;;;;;;;0.80;0.52;;;;;;;16.53;100.00;99713.81;4939562;28;20042;-88
2023/07/22 03:23:03;;;;;;;0.25;0.25;;;;;;;16.42;100.00;99703.19;4943279;28;20043;-88
2023/07/22 03:25:28;;;;;;;0.38;0.38;;;;;;;16.43;100.00;99715.94;4922447;28;20568;-88
2023/07/22 03:27:54;;;;;;;0.57;0.57;;;;;;;16.35;100.00;99700.81;4923333;28;20055;-88
2023/07/22 03:30:21;;;;;;;1.30;0.70;;;;;;;16.42;100.00;99714.41;4938537;28;20035;-88
2023/07/22 03:32:48;;;;;;;1.00;0.40;;;;;;;16.40;100.00;99711.31;4937983;28;20495;-88
2023/07/22 03:35:13;;;;;;;0.47;0.43;;;;;;;16.37;100.00;99717.91;4951777;28;20459;-88
2023/07/22 03:37:40;;;;;;;0.98;0.52;;;;;;;16.43;100.00;99729.16;4954026;28;20053;-88
2023/07/22 03:40:08;;;;;;;0.38;0.38;;;;;;;16.45;100.00;99719.06;4954789;28;20053;-88
2023/07/22 03:42:34;;;;;;;0.32;0.32;;;;;;;16.41;100.00;99723.28;4921023;28;20053;-88
2023/07/22 03:45:00;;;;;;;0.90;0.57;;;;;;;16.39;100.00;99723.78;4933726;28;20074;-88
2023/07/22 03:47:26;;;;;;;2.10;1.65;;;;;;;16.40;100.00;99728.13;4936148;28;20043;-87
2023/07/22 03:49:51;;;;;;;0.90;0.47;;;;;;;16.37;100.00;99742.31;4946770;28;20042;-88
2023/07/22 03:52:18;;;;;;;0.40;0.40;;;;;;;16.36;100.00;99744.34;4922951;28;20142;-89
2023/07/22 03:54:44;;;;;;;1.45;1.17;;;;;;;16.36;100.00;99749.16;4931312;28;20441;-88
2023/07/22 03:57:10;;;;;;;0.30;0.30;;;;;;;16.39;100.00;99725.78;4954199;28;20138;-88
2023/07/22 03:59:35;;;;;;;0.43;0.43;;;;;;;16.38;100.00;99718.69;4937779;28;20522;-88
2023/07/22 04:02:01;;;;;;;0.77;0.45;;;;;;;16.40;100.00;99711.31;4923543;28;20134;-88
2023/07/22 04:04:27;;;;;;;0.10;0.10;;;;;;;16.43;100.00;99715.94;4953320;28;20510;-89
2023/07/22 04:06:53;;;;;;;0.30;0.30;;;;;;;16.42;100.00;99711.59;4951289;28;20058;-88
2023/07/22 04:09:18;;;;;;;0.30;0.30;;;;;;;16.53;100.00;99714.59;4949695;28;20042;-89
2023/07/22 04:11:44;;;;;;;0.90;0.90;;;;;;;16.56;100.00;99724.81;4964623;28;20039;-89
2023/07/22 04:14:12;;;;;;;1.08;0.57;;;;;;;16.51;100.00;99688.31;4928727;28;20035;-89
2023/07/22 04:16:38;;;;;;;0.47;0.47;;;;;;;16.65;100.00;99719.13;4937437;28;20395;-89
2023/07/22 04:19:03;;;;;;;0.82;0.82;;;;;;;16.67;100.00;99724.25;4953472;28;20503;-90
2023/07/22 04:21:29;;;;;;;0.25;0.25;;;;;;;16.69;100.00;99722.50;4922273;28;20053;-89
2023/07/22 04:23:54;;;;;;;0.68;0.68;;;;;;;16.70;100.00;99707.22;4921620;28;20054;-89
2023/07/22 04:26:20;;;;;;;0.80;0.80;;;;;;;16.81;100.00;99728.28;4936467;28;20042;-88
2023/07/22 04:28:46;;;;;;;0.40;0.40;;;;;;;16.81;100.00;99729.03;4935016;29;20069;-89
2023/07/22 04:31:11;;;;;;;1.10;1.00;;;;;;;16.79;100.00;99720.34;4947595;28;20407;-90
2023/07/22 04:33:37;;;;;;;0.85;0.85;;;;;;;16.86;100.00;99719.97;4959297;28;20039;-89
2023/07/22 04:36:03;;;;;;;0.55;0.55;;;;;;;16.90;100.00;99725.34;4940080;28;20039;-89
2023/07/22 04:38:28;;;;;;;0.82;0.73;;;;;;;16.96;100.00;99731.78;4938067;28;20517;-90
2023/07/22 04:40:54;;;;;;;0.08;0.08;;;;;;;16.91;100.00;99724.84;4959556;28;20078;-90
2023/07/22 04:43:19;;;;;;;0.25;0.25;;;;;;;17.01;100.00;99719.91;4937171;28;20034;-89
2023/07/22 04:45:47;;;;;;;0.75;0.68;;;;;;;17.13;100.00;99738.41;4936970;28;20368;-89
2023/07/22 04:48:19;;;;;;;0.55;0.52;;;;;;;17.20;100.00;99735.19;4936526;28;20035;-90
2023/07/22 04:50:45;;;;;;;0.65;0.65;;;;;;;17.21;100.00;99729.09;4951849;28;20142;-89
2023/07/22 04:53:14;;;;;;;1.08;0.63;;;;;;;17.30;100.00;99733.78;4937885;28;20685;-88
2023/07/22 04:55:40;;;;;;;0.60;0.60;;;;;;;17.35;100.00;99738.69;4949076;28;20041;-89
2023/07/22 04:58:06;;;;;;;0.52;0.28;;;;;;;17.40;100.00;99740.00;4941177;28;20097;-89
2023/07/22 05:00:31;;;;;;;0.13;0.13;;;;;;;17.54;100.00;99756.00;4920061;28;20038;-89
2023/07/22 05:02:57;;;;;;;0.88;0.80;;;;;;;17.69;100.00;99760.31;4921028;28;20058;-89
2023/07/22 05:05:22;;;;;;;0.73;0.55;;;;;;;17.74;100.00;99772.06;4952447;28;20098;-91
2023/07/22 05:07:52;;;;;;;0.30;0.30;;;;;;;17.88;100.00;99779.63;4941002;28;20141;-90
2023/07/22 05:10:19;;;;;;;0.95;0.93;;;;;;;18.11;100.00;99775.81;4941084;28;20510;-90
2023/07/22 05:12:44;;;;;;;0.47;0.35;;;;;;;18.10;100.00;99775.03;4954299;28;20043;-91
2023/07/22 05:15:11;;;;;;;0.40;0.40;;;;;;;18.15;100.00;99779.16;4952694;28;20578;-91
2023/07/22 05:17:36;;;;;;;0.73;0.63;;;;;;;18.26;100.00;99770.06;4951944;28;20443;-90
2023/07/22 05:20:05;;;;;;;0.52;0.47;;;;;;;18.36;100.00;99769.41;4953237;28;20047;-90
2023/07/22 05:22:31;;;;;;;1.02;0.60;;;;;;;18.60;100.00;99780.38;4954733;28;20036;-89
2023/07/22 05:24:57;;;;;;;0.60;0.60;;;;;;;18.61;100.00;99779.84;4928719;28;20045;-90
2023/07/22 05:27:22;;;;;;;0.45;0.30;;;;;;;18.74;100.00;99785.06;4936304;28;20051;-91
2023/07/22 05:29:47;;;;;;;0.28;0.28;;;;;;;18.95;100.00;99777.31;4949704;28;20039;-90
2023/07/22 05:32:13;;;;;;;2.00;1.45;;;;;;;19.08;100.00;99780.47;4951640;28;20455;-90
2023/07/22 05:34:38;;;;;;;0.28;0.28;;;;;;;19.11;100.00;99771.03;4933626;28;20043;-90
2023/07/22 05:37:04;;;;;;;1.48;1.15;;;;;;;19.30;100.00;99777.78;4948987;28;20671;-90
2023/07/22 05:39:30;;;;;;;0.20;0.20;;;;;;;19.45;100.00;99772.00;4962038;28;20542;-90
2023/07/22 05:41:55;;;;;;;1.15;1.05;;;;;;;19.52;100.00;99783.56;4939516;28;20041;-90
2023/07/22 05:44:24;;;;;;;0.43;0.43;;;;;;;19.55;100.00;99765.66;4949428;28;20141;-89
2023/07/22 05:46:50;;;;;;;3.75;1.25;;;;;;;19.74;100.00;99776.44;4952166;28;20113;-89
2023/07/22 05:49:15;;;;;;;0.35;0.32;;;;;;;19.83;100.00;99782.63;4935014;28;20062;-90
2023/07/22 05:51:41;;;;;;;0.52;0.52;;;;;;;19.98;100.00;99785.22;4939057;28;20057;-89
2023/07/22 05:54:06;;;;;;;0.50;0.50;;;;;;;20.20;100.00;99776.84;4958071;28;20060;-90
2023/07/22 05:56:32;;;;;;;0.40;0.40;;;;;;;20.39;100.00;99785.59;4928881;28;20039;-91
2023/07/22 05:58:57;;;;;;;0.10;0.10;;;;;;;20.56;100.00;99777.94;4918241;28;20082;-90
2023/07/22 06:01:24;;;;;;;0.50;0.50;;;;;;;20.76;100.00;99785.34;4935491;28;20054;-91
2023/07/22 06:03:50;;;;;;;1.08;0.80;;;;;;;20.75;100.00;99780.97;4930791;29;20134;-90
2023/07/22 06:06:16;;;;;;;1.95;0.73;;;;;;;20.84;100.00;99789.19;4955409;28;20437;-91
2023/07/22 06:08:41;;;;;;;0.35;0.35;;;;;;;21.00;100.00;99794.03;4934124;28;20047;-91
2023/07/22 06:11:07;;;;;;;0.30;0.30;;;;;;;21.17;100.00;99808.91;4952510;28;20039;-91
2023/07/22 06:13:33;;;;;;;0.93;0.57;;;;;;;21.27;100.00;99801.69;4937593;29;20039;-91
2023/07/22 06:15:58;;;;;;;1.02;0.93;;;;;;;21.52;100.00;99810.34;4935086;28;20169;-90
2023/07/22 06:18:24;;;;;;;0.43;0.43;;;;;;;21.74;100.00;99807.47;4934375;28;20050;-92
2023/07/22 06:20:49;;;;;;;0.65;0.65;;;;;;;21.88;100.00;99809.19;4934333;28;20118;-92
2023/07/22 06:23:15;;;;;;;1.92;1.48;;;;;;;21.95;100.00;99803.03;4935777;28;20078;-91
2023/07/22 06:25:43;;;;;;;1.55;0.85;;;;;;;22.21;100.00;99814.69;4935740;28;20039;-92
2023/07/22 06:28:11;;;;;;;1.25;0.82;;;;;;;22.21;100.00;99803.41;4908445;28;20061;-91
2023/07/22 06:30:36;;;;;;;0.52;0.52;;;;;;;22.37;100.00;99815.88;4934116;28;20138;-92
2023/07/22 06:33:02;;;;;;;0.40;0.30;;;;;;;22.55;100.00;99811.66;4936316;28;20039;-92
2023/07/22 06:35:30;;;;;;;0.45;0.45;;;;;;;22.69;100.00;99811.31;4932988;28;20114;-92
2023/07/22 06:37:56;;;;;;;0.50;0.50;;;;;;;22.72;100.00;99817.97;4932262;28;20540;-92
2023/07/22 06:40:21;;;;;;;0.47;0.35;;;;;;;22.96;100.00;99820.09;4950856;28;20531;-92
2023/07/22 06:42:47;;;;;;;0.40;0.40;;;;;;;23.23;100.00;99817.00;4932460;28;20043;-92
2023/07/22 06:45:12;;;;;;;1.10;0.65;;;;;;;23.29;97.57;99807.69;4934174;28;20039;-91
2023/07/22 06:47:38;;;;;;;0.85;0.70;;;;;;;23.47;95.63;99798.50;4938403;28;20042;-93
2023/07/22 06:50:06;;;;;;;0.60;0.60;;;;;;;23.55;96.04;99814.34;4943345;28;20121;-92
2023/07/22 06:52:32;;;;;;;0.65;0.65;;;;;;;23.71;94.44;99812.63;4938639;28;20046;-91
2023/07/22 06:55:27;;;;;;;1.33;0.80;;;;;;;23.85;89.07;99825.59;4949273;28;20054;-90
2023/07/22 06:57:55;;;;;;;6.18;1.55;;;;;;;23.83;89.83;99822.53;4961681;28;20046;-91
2023/07/22 07:00:23;;;;;;;0.47;0.47;;;;;;;23.92;87.59;99836.31;4935105;28;20046;-90
2023/07/22 07:02:49;;;;;;;0.73;0.73;;;;;;;23.98;85.32;99839.81;4922598;28;20039;-90
2023/07/22 07:05:16;;;;;;;0.32;0.32;;;;;;;23.93;85.16;99829.34;4932375;28;20122;-90
2023/07/22 07:07:49;;;;;;;0.75;0.43;;;;;;;23.95;83.44;99846.56;4934679;28;20046;-92
2023/07/22 07:10:33;;;;;;;0.28;0.28;;;;;;;23.93;82.43;99846.34;4922180;28;20102;-91
2023/07/22 07:13:26;;;;;;;0.20;0.20;;;;;;;24.00;84.85;99842.91;4957257;28;20122;-92
2023/07/22 07:15:54;;;;;;;0.15;0.15;;;;;;;23.99;82.00;99817.94;4947680;28;20051;-93
2023/07/22 07:18:23;;;;;;;0.65;0.65;;;;;;;23.94;80.26;99850.69;4954853;28;20046;-92
2023/07/22 07:20:50;;;;;;;0.22;0.22;;;;;;;23.76;82.45;99862.78;4955445;28;20074;-92
2023/07/22 07:23:16;;;;;;;0.75;0.75;;;;;;;23.57;84.25;99864.81;4920686;28;20690;-92
2023/07/22 07:25:42;;;;;;;0.47;0.47;;;;;;;23.75;84.41;99872.56;4952795;28;20047;-93
2023/07/22 07:28:08;;;;;;;0.45;0.45;;;;;;;23.98;85.40;99876.66;4952923;28;20050;-93
2023/07/22 07:30:33;;;;;;;0.50;0.50;;;;;;;24.22;81.60;99875.13;4940100;28;20411;-92
2023/07/22 07:32:59;;;;;;;4.72;1.13;;;;;;;24.49;80.52;99873.97;4936536;28;20066;-91
2023/07/22 07:35:33;;;;;;;0.50;0.50;;;;;;;24.68;80.04;99871.88;4938682;28;20712;-92
2023/07/22 07:38:01;;;;;;;0.95;0.50;;;;;;;24.68;78.83;99876.78;4937901;28;20054;-94
2023/07/22 07:40:26;;;;;;;0.93;0.90;;;;;;;24.68;76.53;99877.53;4954621;28;20042;-94
2023/07/22 07:42:52;;;;;;;2.22;1.42;;;;;;;24.52;77.41;99878.56;4923389;28;20054;-92
2023/07/22 07:45:18;;;;;;;0.38;0.38;;;;;;;24.51;75.71;99885.53;4939831;28;20054;-92
2023/07/22 07:47:44;;;;;;;0.50;0.50;;;;;;;24.45;76.85;99887.69;4934331;28;20031;-93
2023/07/22 07:50:09;;;;;;;0.40;0.40;;;;;;;24.55;77.60;99883.16;4952524;28;20082;-93
2023/07/22 07:52:35;;;;;;;0.60;0.60;;;;;;;24.86;78.60;99885.28;4939118;28;20043;-93
2023/07/22 07:55:00;;;;;;;0.30;0.30;;;;;;;25.01;74.17;99894.06;4919114;28;20050;-93
2023/07/22 07:57:26;;;;;;;0.28;0.28;;;;;;;25.16;71.89;99899.25;4911990;28;20126;-92
2023/07/22 07:59:52;;;;;;;1.27;0.98;;;;;;;25.45;68.05;99909.56;4953544;28;20035;-95
2023/07/22 08:02:19;;;;;;;0.80;0.55;;;;;;;25.41;63.19;99903.47;4920216;28;20491;-92
2023/07/22 08:04:44;;;;;;;1.02;0.52;;;;;;;25.56;62.53;99907.88;4939164;28;20057;-93
2023/07/22 08:07:10;;;;;;;0.65;0.65;;;;;;;25.77;63.50;99912.38;4934322;28;20039;-93
2023/07/22 08:09:36;;;;;;;0.32;0.28;;;;;;;25.36;61.94;99912.81;4950961;28;20067;-93
2023/07/22 08:12:02;;;;;;;0.40;0.40;;;;;;;25.27;66.05;99910.44;4968788;28;20054;-94
2023/07/22 08:14:28;;;;;;;0.70;0.70;;;;;;;25.12;59.88;99920.72;4935544;28;20402;-94
2023/07/22 08:16:53;;;;;;;0.50;0.50;;;;;;;25.17;61.27;99923.47;4951642;28;20186;-94
2023/07/22 08:19:19;;;;;;;0.65;0.57;;;;;;;25.37;67.29;99936.31;4951518;28;20051;-94
2023/07/22 08:21:44;;;;;;;0.60;0.55;;;;;;;25.73;60.93;99926.13;4936045;28;20042;-94
2023/07/22 08:24:10;;;;;;;0.63;0.63;;;;;;;25.85;59.17;99918.16;4960120;28;20515;-92
2023/07/22 08:26:35;;;;;;;0.28;0.28;;;;;;;26.06;56.02;99926.78;4965131;28;20411;-93
2023/07/22 08:29:01;;;;;;;0.40;0.35;;;;;;;26.23;57.16;99927.25;4932485;28;20145;-92
2023/07/22 08:31:27;;;;;;;1.35;0.70;;;;;;;26.30;55.55;99929.44;4945698;28;20104;-93
2023/07/22 08:33:52;;;;;;;0.30;0.22;;;;;;;26.27;57.95;99941.91;4944738;28;20070;-94
2023/07/22 08:36:18;;;;;;;0.28;0.28;;;;;;;26.29;56.61;99965.63;4949047;28;20586;-93
2023/07/22 08:38:43;;;;;;;0.98;0.95;;;;;;;26.29;58.90;99965.63;4931423;28;20047;-93
2023/07/22 08:41:14;;;;;;;5.93;1.23;;;;;;;26.20;57.96;99953.94;4924311;28;20046;-93
2023/07/22 08:43:40;;;;;;;0.77;0.77;;;;;;;26.15;57.01;99951.94;4915358;29;20042;-94
2023/07/22 08:46:06;;;;;;;0.55;0.55;;;;;;;26.00;59.44;99956.09;4943299;28;20087;-95
2023/07/22 08:48:33;;;;;;;0.30;0.22;;;;;;;26.12;56.31;99953.81;4953616;28;20508;-93
2023/07/22 08:51:04;;;;;;;2.92;0.82;;;;;;;26.15;59.05;99952.72;4932754;28;20039;-94
2023/07/22 08:53:30;;;;;;;0.20;0.20;;;;;;;26.13;56.35;99948.88;4942459;28;20061;-93
2023/07/22 08:55:56;;;;;;;0.63;0.60;;;;;;;26.02;55.23;99943.41;4951027;28;20459;-93
2023/07/22 08:58:22;;;;;;;0.60;0.52;;;;;;;26.14;52.90;99944.72;4933425;28;20117;-93
2023/07/22 09:00:48;;;;;;;1.45;1.27;;;;;;;26.10;56.01;99956.44;4941518;28;20490;-94
2023/07/22 09:03:14;;;;;;;0.17;0.17;;;;;;;26.30;57.50;99946.50;4935997;28;20494;-94
2023/07/22 09:05:40;;;;;;;1.85;1.20;;;;;;;26.49;54.16;99947.09;4915279;28;20035;-93
2023/07/22 09:08:08;;;;;;;0.10;0.10;;;;;;;26.77;55.47;99961.47;4935925;28;20513;-94
2023/07/22 09:10:35;;;;;;;0.60;0.60;;;;;;;27.12;51.56;99950.91;4929293;28;20658;-92
2023/07/22 09:13:01;;;;;;;0.82;0.82;;;;;;;27.31;48.85;99954.31;4950885;28;20047;-93
2023/07/22 09:15:28;;;;;;;0.35;0.35;;;;;;;27.35;47.78;99951.88;4945611;28;20047;-93
2023/07/22 09:17:53;;;;;;;0.77;0.35;;;;;;;27.51;47.75;99947.84;4946794;28;20065;-93
2023/07/22 09:20:20;;;;;;;0.75;0.75;;;;;;;27.33;46.94;99934.59;4949460;28;20121;-93
2023/07/22 09:22:48;;;;;;;0.32;0.32;;;;;;;27.55;49.73;99953.97;4965667;28;20061;-92
2023/07/22 09:25:18;;;;;;;0.75;0.75;;;;;;;27.67;48.49;99955.22;4951796;28;20506;-93
2023/07/22 09:27:45;;;;;;;0.75;0.75;;;;;;;27.71;47.23;99952.78;4958568;28;20042;-91
2023/07/22 09:30:23;;;;;;;0.65;0.65;;;;;;;27.73;46.00;99957.91;4954579;28;20137;-92
2023/07/22 09:32:51;;;;;;;0.22;0.22;;;;;;;27.95;46.47;99948.75;4947634;28;20415;-93
2023/07/22 09:48:48;;;;;;;0.35;0.35;;;;;;;27.86;44.60;99903.69;5001038;28;20042;-95
2023/07/22 09:51:18;;;;;;;0.80;0.80;;;;;;;28.03;44.37;99928.84;4970888;28;20046;-96
2023/07/22 09:53:52;;;;;;;0.80;0.80;;;;;;;28.20;43.38;99894.94;4948030;28;20301;-95
2023/07/22 09:56:17;;;;;;;0.28;0.28;;;;;;;28.60;43.81;99929.53;4957432;28;20129;-95
2023/07/22 09:58:48;;;;;;;1.20;0.98;;;;;;;28.82;43.45;99939.53;4950705;28;20042;-95
2023/07/22 10:01:26;;;;;;;0.70;0.70;;;;;;;28.99;41.82;99948.34;4955976;28;20052;-96
2023/07/22 10:03:56;;;;;;;0.40;0.40;;;;;;;28.16;41.56;99914.50;4920406;29;20411;-96
2023/07/22 10:06:28;;;;;;;0.68;0.68;;;;;;;27.82;44.09;99937.47;4937227;28;20562;-93
2023/07/22 10:08:58;;;;;;;;;;;;;;;28.08;42.80;99933.63;4935275;28;20066;-93
2023/07/22 10:11:25;;;;;;;0.20;0.20;;;;;;;28.10;43.19;99939.56;4920955;28;19918;-94
2023/07/22 10:13:53;;;;;;;0.93;0.77;;;;;;;28.19;43.05;99934.09;4934757;28;20134;-92
2023/07/22 10:16:19;;;;;;;1.02;0.73;;;;;;;28.63;41.90;99928.41;4919067;28;20039;-93
2023/07/22 10:18:46;;;;;;;0.40;0.40;;;;;;;28.45;43.17;99933.09;4930013;28;20047;-94
2023/07/22 10:21:13;;;;;;;0.45;0.45;;;;;;;28.55;42.91;99934.06;4930591;28;20102;-95
2023/07/22 10:23:40;;;;;;;1.98;0.65;;;;;;;28.73;42.81;99924.47;4930165;28;20068;-95
2023/07/22 10:26:06;;;;;;;0.17;0.17;;;;;;;28.94;42.78;99929.28;4920040;28;20525;-94
2023/07/22 10:28:32;;;;;;;1.65;1.15;;;;;;;29.09;42.06;99932.16;4921219;28;20054;-93
2023/07/22 10:30:59;;;;;;;0.50;0.50;;;;;;;29.38;39.44;99921.34;4919748;28;20070;-93
2023/07/22 10:33:26;;;;;;;2.88;0.98;;;;;;;29.78;40.42;99928.00;4938008;28;20151;-92
2023/07/22 10:36:06;;;;;;;1.35;0.52;;;;;;;29.17;40.33;99932.94;4920526;28;20047;-94
2023/07/22 10:38:32;;;;;;;0.25;0.25;;;;;;;29.08;41.27;99913.50;4941444;28;20070;-94
2023/07/22 10:40:58;;;;;;;0.45;0.45;;;;;;;29.45;41.82;99927.06;4941761;28;20478;-91
2023/07/22 10:43:25;;;;;;;1.27;0.55;;;;;;;29.32;39.64;99924.38;4936647;28;20120;-93
2023/07/22 10:45:54;;;;;;;0.32;0.32;;;;;;;29.31;39.61;99911.47;4941289;28;20050;-95
2023/07/22 10:48:22;;;;;;;0.50;0.50;;;;;;;28.62;38.83;99921.94;4944853;28;20058;-94
2023/07/22 10:50:50;;;;;;;0.43;0.43;;;;;;;28.53;39.86;99916.75;4943965;28;20432;-94
2023/07/22 10:53:24;;;;;;;0.45;0.40;;;;;;;28.86;40.23;99937.06;4926568;28;20195;-95
2023/07/22 10:56:14;;;;;;;0.30;0.30;;;;;;;29.09;38.82;99915.78;4964214;28;20070;-95
2023/07/22 10:58:46;;;;;;;0.52;0.52;;;;;;;29.33;38.58;99919.44;4958032;28;20086;-94
2023/07/22 11:01:32;;;;;;;0.70;0.47;;;;;;;29.59;39.39;99919.84;4973331;28;20962;-96
2023/07/22 11:04:35;;;;;;;0.40;0.40;;;;;;;29.50;38.00;99876.78;4950356;28;20047;-94
2023/07/22 11:07:05;;;;;;;0.77;0.70;;;;;;;29.77;38.08;99885.69;4950134;28;20038;-92
2023/07/22 11:09:31;;;;;;;0.47;0.38;;;;;;;29.69;38.03;99913.53;4954627;28;20042;-95
2023/07/22 11:11:58;;;;;;;0.60;0.60;;;;;;;29.91;38.29;99915.63;4977448;28;20073;-93
2023/07/22 11:14:28;;;;;;;0.50;0.50;;;;;;;30.01;36.25;99908.72;4961182;28;20680;-95
2023/07/22 11:16:59;;;;;;;0.60;0.60;;;;;;;29.97;37.52;99890.44;4944444;28;20615;-95
2023/07/22 11:19:25;;;;;;;0.85;0.75;;;;;;;29.90;37.17;99919.81;4956433;28;20077;-94
2023/07/22 11:21:53;;;;;;;0.70;0.70;;;;;;;29.82;39.21;99899.78;4958175;28;20109;-93
2023/07/22 11:24:19;;;;;;;0.40;0.40;;;;;;;30.03;37.34;99908.91;4926044;29;20059;-94
2023/07/22 11:26:46;;;;;;;1.65;0.70;;;;;;;29.93;36.65;99895.78;4959072;28;20077;-94
2023/07/22 11:29:12;;;;;;;0.35;0.35;;;;;;;30.27;36.98;99898.94;4985237;28;20542;-94
2023/07/22 11:31:49;;;;;;;0.50;0.50;;;;;;;30.39;37.62;99891.44;4960585;28;20125;-93
2023/07/22 11:34:16;;;;;;;0.45;0.45;;;;;;;30.88;36.82;99910.09;4951341;28;20067;-93
2023/07/22 11:36:42;;;;;;;0.73;0.73;;;;;;;30.69;35.14;99893.41;4926078;28;20329;-92
2023/07/22 11:39:13;;;;;;;2.10;0.65;;;;;;;30.94;35.97;99904.88;4946252;28;20114;-93
2023/07/22 11:41:41;;;;;;;0.28;0.28;;;;;;;30.25;35.88;99884.41;4964911;28;20057;-94
2023/07/22 11:44:17;;;;;;;0.70;0.70;;;;;;;29.78;37.10;99884.34;4961973;28;20051;-93
2023/07/22 11:47:07;;;;;;;0.52;0.45;;;;;;;29.97;36.71;99904.72;4950208;28;20483;-91
2023/07/22 11:49:38;;;;;;;0.63;0.63;;;;;;;29.70;36.01;99877.88;4938608;28;20053;-92
2023/07/22 11:52:11;;;;;;;0.63;0.50;;;;;;;29.86;36.12;99882.25;4945045;28;20034;-92
2023/07/22 11:54:41;;;;;;;0.50;0.50;;;;;;;29.41;36.33;99886.69;4963307;28;20058;-92
2023/07/22 11:57:25;;;;;;;0.30;0.25;;;;;;;29.78;37.25;99878.63;4956238;28;20483;-95
2023/07/22 11:59:55;;;;;;;0.73;0.73;;;;;;;29.83;36.36;99886.25;4957152;28;20051;-93
2023/07/22 12:02:28;;;;;;;0.43;0.43;;;;;;;30.06;36.26;99898.41;4980551;28;20494;-94
2023/07/22 12:05:05;;;;;;;1.02;0.55;;;;;;;29.62;35.25;99887.25;4942225;28;20039;-93
2023/07/22 12:07:35;;;;;;;0.52;0.45;;;;;;;29.85;37.38;99889.28;4946419;28;20387;-95
2023/07/22 12:10:07;;;;;;;0.90;0.90;;;;;;;30.26;36.28;99868.78;4976430;28;20491;-93
2023/07/22 12:12:37;;;;;;;;;;;;;;;30.92;35.41;99873.97;4958508;28;20067;-95
2023/07/22 12:15:16;;;;;;;5.03;1.77;;;;;;;30.74;35.58;99848.69;4944820;28;20048;-96
2023/07/22 12:17:52;;;;;;;0.47;0.47;;;;;;;31.15;34.50;99873.84;4952119;28;20054;-95
2023/07/22 12:20:18;;;;;;;0.40;0.30;;;;;;;30.93;33.93;99874.75;4949770;28;20043;-95
2023/07/22 12:22:44;;;;;;;0.57;0.57;;;;;;;31.20;34.13;99861.38;4939053;28;20050;-94
2023/07/22 12:25:09;;;;;;;1.55;1.20;;;;;;;31.32;32.42;99848.09;4925544;28;21616;-93
2023/07/22 12:27:37;;;;;;;0.63;0.63;;;;;;;31.41;33.27;99855.28;4966930;28;20054;-95
2023/07/22 12:30:03;;;;;;;1.85;0.43;;;;;;;31.50;33.05;99856.72;4937283;28;20658;-92
2023/07/22 12:32:28;;;;;;;0.30;0.30;;;;;;;31.67;33.38;99868.22;4938404;29;20384;-95
2023/07/22 12:34:54;;;;;;;0.82;0.82;;;;;;;31.90;31.85;99855.19;4952346;28;20049;-93
2023/07/22 12:37:19;;;;;;;0.90;0.82;;;;;;;31.96;32.40;99852.03;4960602;28;20055;-96
2023/07/22 12:39:45;;;;;;;0.50;0.50;;;;;;;31.94;31.71;99837.56;4939186;28;20045;-95
2023/07/22 12:42:11;;;;;;;0.45;0.45;;;;;;;32.03;31.28;99853.31;4971234;28;20105;-96
2023/07/22 12:44:36;;;;;;;0.82;0.82;;;;;;;31.79;32.24;99834.84;4936794;28;20026;-95
2023/07/22 12:47:02;;;;;;;0.30;0.30;;;;;;;31.73;31.82;99845.81;4935331;28;20415;-95